Time;durP1;ratioP1;P1;durP2;ratioP2;P2;SDS_P1;SDS_P2;PMS_P1;PMS_P2;Temp;Humidity;BMP_temperature;BMP_pressure;BME280_temperature;BME280_humidity;BME280_pressure;Samples;Min_cycle;Max_cycle;Signal;HPM_P1;HPM_P2
2022/04/09 00:02:11;;;;;;;1.23;0.40;;;;;;;12.38;56.15;93119.69;4351126;32;20193;-57
2022/04/09 00:04:38;;;;;;;0.40;0.40;;;;;;;12.36;55.79;93151.19;4336898;32;20335;-57
2022/04/09 00:07:05;;;;;;;1.03;0.30;;;;;;;12.46;56.09;93147.16;4318874;32;20199;-58
2022/04/09 00:09:35;;;;;;;0.87;0.37;;;;;;;12.50;55.11;93145.28;4327480;32;20181;-58
2022/04/09 00:12:04;;;;;;;0.17;0.17;;;;;;;12.58;55.02;93143.50;4346366;32;20253;-58
2022/04/09 00:14:34;;;;;;;0.73;0.30;;;;;;;12.62;54.29;93153.06;4323115;32;20194;-58
2022/04/09 00:17:01;;;;;;;0.20;0.20;;;;;;;12.62;54.51;93150.41;4329671;32;20248;-57
2022/04/09 00:19:27;;;;;;;1.17;0.57;;;;;;;12.70;54.01;93148.59;4342115;32;20188;-63
2022/04/09 00:21:58;;;;;;;1.37;0.40;;;;;;;12.68;55.16;93154.28;4353384;32;20220;-58
2022/04/09 00:24:25;;;;;;;1.03;0.47;;;;;;;12.69;55.48;93171.00;4334876;32;20194;-56
2022/04/09 00:26:55;;;;;;;1.53;0.50;;;;;;;12.80;55.02;93161.28;4324633;32;20189;-57
2022/04/09 00:29:21;;;;;;;0.60;0.53;;;;;;;12.90;55.03;93173.97;4351283;32;20230;-57
2022/04/09 00:31:48;;;;;;;0.80;0.43;;;;;;;12.99;55.33;93184.34;4357347;32;20267;-56
2022/04/09 00:34:14;;;;;;;0.97;0.40;;;;;;;13.03;55.97;93193.94;4310572;32;20221;-58
2022/04/09 00:36:40;;;;;;;2.33;0.40;;;;;;;13.04;57.09;93208.00;4334328;32;20209;-58
2022/04/09 00:39:09;;;;;;;0.80;0.67;;;;;;;12.83;58.76;93224.44;4329347;32;20189;-57
2022/04/09 00:41:49;;;;;;;2.60;0.43;;;;;;;12.80;60.46;93219.84;4355182;32;20189;-58
2022/04/09 00:44:22;;;;;;;1.47;0.60;;;;;;;12.74;61.63;93234.56;4339593;32;20239;-58
2022/04/09 00:46:51;;;;;;;1.50;0.93;;;;;;;12.61;63.25;93234.00;4336190;32;20193;-56
2022/04/09 00:49:18;;;;;;;1.93;0.43;;;;;;;12.43;64.57;93250.81;4315785;32;20276;-58
2022/04/09 00:51:50;;;;;;;1.60;0.33;;;;;;;12.34;66.37;93262.44;4321454;32;20190;-58
2022/04/09 00:54:25;;;;;;;1.40;0.53;;;;;;;12.12;68.97;93276.47;4334807;32;20194;-57
2022/04/09 00:56:59;;;;;;;2.53;0.37;;;;;;;12.07;72.46;93283.97;4338757;32;20184;-56
2022/04/09 00:59:29;;;;;;;2.93;0.40;;;;;;;11.78;74.83;93309.25;4308968;33;20223;-57
2022/04/09 01:01:56;;;;;;;1.17;0.53;;;;;;;11.59;77.06;93299.38;4299765;32;20190;-57
2022/04/09 01:04:23;;;;;;;1.20;0.40;;;;;;;11.32;79.94;93354.94;4330665;32;20185;-57
2022/04/09 01:06:51;;;;;;;0.93;0.50;;;;;;;11.24;80.39;93350.56;4310968;32;20280;-57
2022/04/09 01:09:28;;;;;;;1.83;0.40;;;;;;;11.03;82.70;93328.88;4329531;32;20279;-57
2022/04/09 01:12:09;;;;;;;1.67;0.40;;;;;;;10.81;83.69;93346.16;4311574;32;20174;-58
2022/04/09 01:14:36;;;;;;;0.20;0.20;;;;;;;10.70;83.75;93337.22;4327351;32;20311;-55
2022/04/09 01:17:07;;;;;;;2.03;0.50;;;;;;;10.76;83.67;93349.09;4305222;32;20190;-56
2022/04/09 01:19:34;;;;;;;3.47;0.30;;;;;;;10.77;83.19;93400.25;4328635;32;20281;-57
2022/04/09 01:22:01;;;;;;;1.27;0.30;;;;;;;10.17;82.94;93439.97;4344338;32;20269;-57
2022/04/09 01:24:27;;;;;;;1.20;0.20;;;;;;;9.80;85.52;93478.22;4342638;32;20278;-62
2022/04/09 01:26:53;;;;;;;0.67;0.30;;;;;;;9.33;87.42;93473.41;4347406;32;20291;-55
2022/04/09 01:29:19;;;;;;;0.30;0.20;;;;;;;9.05;89.25;93483.06;4347363;32;20219;-59
2022/04/09 01:31:45;;;;;;;0.20;0.20;;;;;;;8.75;88.99;93496.44;4332296;32;20274;-58
2022/04/09 01:34:17;;;;;;;0.17;0.10;;;;;;;8.57;88.85;93501.13;4340814;32;20332;-57
2022/04/09 01:36:46;;;;;;;0.00;0.00;;;;;;;8.45;90.38;93511.66;4335824;32;20211;-58
2022/04/09 01:39:18;;;;;;;0.00;0.00;;;;;;;8.45;89.80;93511.66;4359530;32;20273;-57
2022/04/09 01:41:45;;;;;;;0.10;0.10;;;;;;;8.31;89.86;93529.63;4329039;32;20294;-58
2022/04/09 01:44:13;;;;;;;0.40;0.20;;;;;;;8.22;89.11;93528.91;4325168;33;20289;-58
2022/04/09 01:46:44;;;;;;;0.20;0.10;;;;;;;8.14;88.83;93550.88;4347701;32;20342;-57
2022/04/09 01:49:11;;;;;;;0.07;0.07;;;;;;;8.05;89.01;93552.81;4338576;32;20332;-58
2022/04/09 01:51:39;;;;;;;0.03;0.03;;;;;;;7.89;89.77;93568.44;4366495;32;20316;-57
2022/04/09 01:54:06;;;;;;;0.10;0.10;;;;;;;8.07;89.44;93579.66;4323734;32;20407;-57
2022/04/09 01:56:33;;;;;;;0.20;0.00;;;;;;;7.85;90.01;93601.84;4356062;32;20337;-59
2022/04/09 01:58:59;;;;;;;0.10;0.07;;;;;;;7.89;89.74;93598.25;4350814;32;20340;-58
2022/04/09 02:01:26;;;;;;;0.17;0.07;;;;;;;7.73;90.22;93626.25;4359761;32;20312;-58
2022/04/09 02:03:53;;;;;;;0.40;0.10;;;;;;;7.88;91.02;93624.97;4341468;32;20205;-57
2022/04/09 02:06:20;;;;;;;0.00;0.00;;;;;;;7.50;88.43;93651.31;4340912;32;20329;-57
2022/04/09 02:08:46;;;;;;;0.30;0.10;;;;;;;7.11;86.16;93663.66;4342003;32;20406;-58
2022/04/09 02:11:14;;;;;;;0.90;0.10;;;;;;;6.76;87.09;93689.25;4331308;32;20286;-58
2022/04/09 02:13:39;;;;;;;0.13;0.10;;;;;;;6.54;87.83;93707.81;4332916;32;20296;-57
2022/04/09 02:16:09;;;;;;;0.10;0.10;;;;;;;6.59;88.65;93739.28;4327223;32;20299;-58
2022/04/09 02:18:36;;;;;;;0.20;0.10;;;;;;;6.26;88.52;93743.34;4353659;32;20205;-58
2022/04/09 02:21:02;;;;;;;0.10;0.10;;;;;;;6.26;89.38;93773.09;4314199;32;20335;-57
2022/04/09 02:23:30;;;;;;;0.10;0.10;;;;;;;6.17;88.62;93803.91;4364799;32;20358;-58
2022/04/09 02:25:58;;;;;;;0.10;0.10;;;;;;;5.95;88.44;93809.19;4340349;32;20367;-57
2022/04/09 02:28:26;;;;;;;0.17;0.17;;;;;;;5.42;86.96;93820.41;4341301;32;20294;-58
2022/04/09 02:30:52;;;;;;;0.00;0.00;;;;;;;5.17;88.28;93840.16;4347744;32;20387;-59
2022/04/09 02:33:20;;;;;;;0.20;0.20;;;;;;;5.12;88.11;93853.41;4343726;32;20360;-57
2022/04/09 02:35:47;;;;;;;0.30;0.10;;;;;;;4.72;87.98;93858.41;4359630;32;20252;-58
2022/04/09 02:38:13;;;;;;;0.20;0.20;;;;;;;4.83;88.45;93862.38;4360983;32;20338;-57
2022/04/09 02:40:40;;;;;;;0.20;0.20;;;;;;;4.63;89.58;93869.88;4333720;32;20286;-58
2022/04/09 02:43:08;;;;;;;0.30;0.30;;;;;;;4.53;88.09;93886.63;4362048;32;20293;-57
2022/04/09 02:45:34;;;;;;;0.20;0.20;;;;;;;4.56;89.57;93904.41;4355394;32;20310;-56
2022/04/09 02:48:00;;;;;;;0.23;0.23;;;;;;;4.47;89.65;93900.88;4335261;32;20327;-55
2022/04/09 02:50:26;;;;;;;0.30;0.30;;;;;;;4.48;90.05;93924.22;4315524;32;20194;-59
2022/04/09 02:52:53;;;;;;;0.30;0.30;;;;;;;4.38;90.88;93934.13;4344770;32;20300;-58
2022/04/09 02:55:20;;;;;;;0.30;0.30;;;;;;;4.44;89.45;93954.75;4346324;32;20380;-56
2022/04/09 02:57:45;;;;;;;0.33;0.33;;;;;;;4.58;90.47;93964.50;4342736;32;20293;-55
2022/04/09 03:00:13;;;;;;;0.30;0.30;;;;;;;4.44;90.07;93991.50;4357678;32;20299;-56
2022/04/09 03:02:41;;;;;;;0.30;0.30;;;;;;;4.34;90.71;94017.16;4341059;32;20232;-56
2022/04/09 03:05:10;;;;;;;0.30;0.30;;;;;;;4.48;89.63;94029.25;4332213;32;20333;-56
2022/04/09 03:07:39;;;;;;;0.40;0.40;;;;;;;4.39;90.20;94051.19;4328676;32;20316;-57
2022/04/09 03:10:07;;;;;;;0.40;0.40;;;;;;;4.48;90.70;94060.75;4317392;32;20305;-55
2022/04/09 03:12:41;;;;;;;0.40;0.40;;;;;;;4.52;90.17;94081.97;4346332;32;20281;-57
2022/04/09 03:15:07;;;;;;;0.30;0.30;;;;;;;4.51;90.04;94090.12;4327417;32;20280;-58
2022/04/09 03:17:33;;;;;;;0.40;0.40;;;;;;;4.43;90.07;94099.44;4337158;32;20304;-58
2022/04/09 03:20:00;;;;;;;0.60;0.60;;;;;;;4.34;90.96;94109.03;4344276;32;20193;-60
2022/04/09 03:22:27;;;;;;;0.30;0.30;;;;;;;4.35;90.01;94128.97;4335747;32;20345;-58
2022/04/09 03:24:58;;;;;;;0.50;0.50;;;;;;;4.45;89.73;94126.97;4339860;32;20296;-58
2022/04/09 03:27:30;;;;;;;0.63;0.63;;;;;;;4.37;90.55;94126.81;4331149;32;20305;-60
2022/04/09 03:29:56;;;;;;;0.60;0.60;;;;;;;4.25;91.38;94122.00;4323359;32;20296;-60
2022/04/09 03:32:26;;;;;;;0.73;0.73;;;;;;;4.20;90.16;94148.28;4341047;32;20427;-59
2022/04/09 03:34:53;;;;;;;0.87;0.87;;;;;;;4.29;91.13;94166.84;4335350;32;20199;-60
2022/04/09 03:37:20;;;;;;;0.60;0.60;;;;;;;4.02;90.47;94183.94;4355473;32;20413;-59
2022/04/09 03:39:46;;;;;;;0.80;0.80;;;;;;;3.96;91.64;94187.66;4314812;33;20294;-59
2022/04/09 03:42:13;;;;;;;0.80;0.80;;;;;;;4.20;91.08;94194.75;4327597;32;20354;-58
2022/04/09 03:44:40;;;;;;;0.90;0.90;;;;;;;4.26;91.48;94215.41;4332658;32;20332;-55
2022/04/09 03:47:07;;;;;;;0.83;0.83;;;;;;;4.48;90.59;94241.16;4318758;32;20290;-58
2022/04/09 03:49:35;;;;;;;1.00;1.00;;;;;;;4.30;91.04;94252.38;4320920;32;20293;-58
2022/04/09 03:52:01;;;;;;;1.07;0.90;;;;;;;4.43;91.56;94260.34;4307531;33;20291;-58
2022/04/09 03:54:30;;;;;;;1.00;1.00;;;;;;;4.35;91.26;94273.34;4313187;33;20401;-57
2022/04/09 03:56:57;;;;;;;1.77;1.30;;;;;;;4.20;92.74;94282.13;4341951;32;20207;-58
2022/04/09 03:59:24;;;;;;;1.17;1.17;;;;;;;4.26;90.93;94282.88;4324448;32;20278;-55
2022/04/09 04:01:51;;;;;;;1.20;1.10;;;;;;;4.38;90.63;94280.62;4327165;32;20364;-58
2022/04/09 04:04:21;;;;;;;1.30;1.30;;;;;;;4.33;89.89;94284.13;4343618;32;20278;-55
2022/04/09 04:06:48;;;;;;;1.30;1.30;;;;;;;4.38;89.51;94275.38;4323649;32;20320;-56
2022/04/09 04:09:16;;;;;;;1.30;1.20;;;;;;;4.48;88.87;94270.81;4312713;32;20282;-57
2022/04/09 04:11:44;;;;;;;1.33;1.33;;;;;;;4.54;88.84;94282.03;4330606;32;20299;-57
2022/04/09 04:14:12;;;;;;;1.70;1.60;;;;;;;4.45;89.16;94299.47;4294881;32;20322;-57
2022/04/09 04:16:41;;;;;;;2.03;1.93;;;;;;;4.45;89.06;94323.88;4333195;32;20329;-55
2022/04/09 04:19:09;;;;;;;1.90;1.80;;;;;;;4.32;89.82;94318.53;4320086;32;20283;-57
2022/04/09 04:21:39;;;;;;;1.73;1.63;;;;;;;4.34;89.95;94332.94;4316018;32;20296;-56
2022/04/09 04:24:06;;;;;;;1.53;1.50;;;;;;;4.22;89.32;94347.47;4327682;32;20303;-57
2022/04/09 04:26:31;;;;;;;1.93;1.83;;;;;;;4.22;89.61;94355.34;4327536;32;20296;-55
2022/04/09 04:28:58;;;;;;;1.60;1.60;;;;;;;4.30;89.79;94365.25;4338247;32;20294;-57
2022/04/09 04:31:24;;;;;;;1.67;1.67;;;;;;;4.36;89.85;94361.53;4311700;32;20201;-59
2022/04/09 04:33:51;;;;;;;1.47;1.47;;;;;;;4.33;89.79;94367.34;4337728;32;20292;-57
2022/04/09 04:36:16;;;;;;;1.67;1.60;;;;;;;4.37;89.20;94373.56;4315841;32;20297;-57
2022/04/09 04:38:43;;;;;;;1.20;1.20;;;;;;;4.42;88.13;94392.69;4327277;32;20273;-58
2022/04/09 04:41:08;;;;;;;1.70;1.60;;;;;;;4.32;88.25;94389.41;4352183;32;20243;-57
2022/04/09 04:43:35;;;;;;;1.30;1.20;;;;;;;4.27;87.74;94405.19;4311238;32;20300;-57
2022/04/09 04:46:02;;;;;;;1.77;1.67;;;;;;;4.25;88.08;94408.09;4330202;32;20197;-57
2022/04/09 04:48:32;;;;;;;2.30;2.10;;;;;;;4.14;88.48;94417.91;4345040;32;20289;-57
2022/04/09 04:50:58;;;;;;;1.30;1.30;;;;;;;4.25;89.05;94434.31;4344022;32;20293;-57
2022/04/09 04:53:25;;;;;;;1.60;1.50;;;;;;;4.42;87.93;94415.53;4283934;32;20343;-56
2022/04/09 04:55:51;;;;;;;1.67;1.57;;;;;;;4.38;88.15;94412.69;4307236;32;20344;-57
2022/04/09 04:58:19;;;;;;;1.70;1.60;;;;;;;4.22;89.10;94420.97;4343579;32;20309;-57
2022/04/09 05:00:50;;;;;;;2.43;2.07;;;;;;;4.49;88.82;94442.28;4350948;32;20304;-57
2022/04/09 05:03:16;;;;;;;2.17;1.97;;;;;;;4.59;87.46;94439.53;4344989;32;20304;-56
2022/04/09 05:05:41;;;;;;;2.17;2.07;;;;;;;4.46;87.53;94453.31;4342986;32;20348;-57
2022/04/09 05:08:09;;;;;;;2.27;2.17;;;;;;;4.28;88.98;94461.88;4356616;32;20225;-57
2022/04/09 05:10:34;;;;;;;2.07;1.90;;;;;;;4.46;88.66;94476.94;4353122;32;20256;-58
2022/04/09 05:12:59;;;;;;;5.77;5.27;;;;;;;4.31;89.00;94503.34;4351865;32;20319;-55
2022/04/09 05:15:25;;;;;;;5.47;5.17;;;;;;;4.36;89.64;94516.44;4351462;32;20194;-55
2022/04/09 05:17:50;;;;;;;3.40;3.20;;;;;;;4.29;90.19;94527.22;4351271;32;20185;-57
2022/04/09 05:20:16;;;;;;;3.20;3.00;;;;;;;4.37;89.34;94538.97;4340578;32;20173;-58
2022/04/09 05:22:46;;;;;;;2.97;2.77;;;;;;;4.26;90.07;94542.72;4359631;32;20197;-57
2022/04/09 05:25:13;;;;;;;2.70;2.60;;;;;;;4.33;90.30;94551.87;4347512;32;20383;-55
2022/04/09 05:27:43;;;;;;;2.47;2.37;;;;;;;4.10;90.29;94555.97;4349189;32;20332;-57
2022/04/09 05:30:09;;;;;;;3.13;2.90;;;;;;;4.24;90.76;94560.59;4357907;32;20328;-57
2022/04/09 05:32:36;;;;;;;2.57;2.37;;;;;;;4.21;90.06;94572.41;4363280;32;20280;-57
2022/04/09 05:35:04;;;;;;;2.30;2.20;;;;;;;4.10;89.96;94573.53;4353369;32;20232;-57
2022/04/09 05:37:31;;;;;;;3.27;3.07;;;;;;;4.12;89.42;94580.09;4360387;32;20291;-58
2022/04/09 05:39:57;;;;;;;2.60;2.40;;;;;;;4.21;89.62;94579.50;4361241;32;20291;-57
2022/04/09 05:42:24;;;;;;;3.33;3.07;;;;;;;4.30;90.72;94593.62;4357109;32;20276;-57
2022/04/09 05:44:49;;;;;;;4.30;2.83;;;;;;;4.19;90.28;94603.41;4340720;32;20361;-56
2022/04/09 05:47:14;;;;;;;3.53;3.33;;;;;;;4.25;89.98;94609.41;4347999;32;20327;-58
2022/04/09 05:49:40;;;;;;;3.63;3.40;;;;;;;4.15;90.47;94612.87;4362785;32;20212;-58
2022/04/09 05:52:05;;;;;;;3.47;3.27;;;;;;;4.22;90.23;94620.44;4365079;32;20197;-58
2022/04/09 05:54:31;;;;;;;3.70;3.50;;;;;;;4.18;89.72;94628.06;4360775;32;20196;-57
2022/04/09 05:56:58;;;;;;;3.43;3.23;;;;;;;4.10;89.74;94632.06;4358569;32;20200;-57
2022/04/09 05:59:26;;;;;;;4.07;3.87;;;;;;;4.02;90.77;94643.09;4341403;32;20393;-57
2022/04/09 06:01:51;;;;;;;4.23;4.03;;;;;;;4.07;91.19;94645.72;4362543;32;20277;-55
2022/04/09 06:04:20;;;;;;;4.40;4.10;;;;;;;4.14;90.53;94643.59;4350320;32;20309;-56
2022/04/09 06:06:46;;;;;;;4.30;4.10;;;;;;;4.17;90.40;94644.88;4350044;32;20288;-57
2022/04/09 06:09:11;;;;;;;4.00;3.70;;;;;;;4.21;91.14;94650.37;4362332;32;20293;-58
2022/04/09 06:11:36;;;;;;;4.90;4.50;;;;;;;4.23;90.97;94648.25;4362428;32;20217;-57
2022/04/09 06:14:01;;;;;;;4.50;4.20;;;;;;;4.26;91.13;94668.72;4342481;32;20204;-58
2022/04/09 06:16:27;;;;;;;4.67;4.37;;;;;;;4.33;90.45;94672.66;4360828;32;20203;-55
2022/04/09 06:18:52;;;;;;;4.50;4.20;;;;;;;4.23;90.53;94677.12;4350709;32;20194;-56
2022/04/09 06:21:17;;;;;;;4.10;3.90;;;;;;;4.14;92.15;94680.34;4358145;32;20281;-57
2022/04/09 06:23:43;;;;;;;4.20;4.00;;;;;;;4.19;90.70;94686.59;4367775;32;20216;-56
2022/04/09 06:26:08;;;;;;;4.23;3.93;;;;;;;4.35;90.26;94688.91;4362026;32;20272;-59
2022/04/09 06:28:34;;;;;;;4.20;4.00;;;;;;;4.37;90.70;94699.13;4363026;32;20201;-55
2022/04/09 06:30:59;;;;;;;4.90;4.60;;;;;;;4.24;91.16;94704.97;4359751;32;20194;-61
2022/04/09 06:33:24;;;;;;;4.33;4.10;;;;;;;4.20;91.75;94702.09;4363701;32;20193;-56
2022/04/09 06:35:50;;;;;;;4.00;3.80;;;;;;;4.30;91.72;94709.94;4341300;32;20201;-57
2022/04/09 06:38:15;;;;;;;4.17;3.97;;;;;;;4.37;90.22;94709.63;4348224;32;20188;-56
2022/04/09 06:40:41;;;;;;;3.83;3.63;;;;;;;4.24;89.52;94707.59;4364755;32;20189;-57
2022/04/09 06:43:06;;;;;;;3.67;3.47;;;;;;;4.37;89.27;94717.50;4355299;32;20180;-57
2022/04/09 06:45:33;;;;;;;3.77;3.57;;;;;;;4.37;91.00;94720.13;4361492;32;20237;-57
2022/04/09 06:47:58;;;;;;;3.97;3.77;;;;;;;4.48;90.43;94716.41;4357490;32;20228;-58
2022/04/09 06:50:24;;;;;;;4.20;3.90;;;;;;;4.58;89.82;94721.59;4356947;32;20300;-57
2022/04/09 06:52:49;;;;;;;4.47;4.17;;;;;;;4.47;90.28;94736.63;4362060;32;20288;-57
2022/04/09 06:55:14;;;;;;;3.67;3.47;;;;;;;4.60;89.19;94740.50;4330437;32;20190;-57
2022/04/09 06:57:41;;;;;;;3.70;3.50;;;;;;;4.53;89.62;94734.00;4346547;32;20194;-58
2022/04/09 07:00:13;;;;;;;4.47;4.17;;;;;;;4.62;88.43;94743.66;4352173;32;20213;-58
2022/04/09 07:02:39;;;;;;;4.37;4.07;;;;;;;4.45;88.64;94751.09;4361086;32;20336;-58
2022/04/09 07:05:05;;;;;;;4.60;4.30;;;;;;;4.52;88.38;94753.44;4363188;32;20289;-57
2022/04/09 07:07:31;;;;;;;4.17;3.77;;;;;;;4.52;88.20;94769.19;4356755;32;20300;-56
2022/04/09 07:10:09;;;;;;;4.20;3.90;;;;;;;4.58;87.11;94765.47;4365236;32;20274;-57
2022/04/09 07:12:34;;;;;;;4.70;4.43;;;;;;;4.48;87.20;94767.09;4358780;32;20196;-59
2022/04/09 07:15:01;;;;;;;4.47;4.07;;;;;;;4.30;87.34;94766.91;4352292;32;20369;-62
2022/04/09 07:17:26;;;;;;;4.33;4.00;;;;;;;4.34;87.81;94770.56;4371619;32;20233;-59
2022/04/09 07:19:56;;;;;;;6.33;3.53;;;;;;;4.42;87.26;94777.88;4346194;32;20278;-56
2022/04/09 07:22:21;;;;;;;13.27;5.77;;;;;;;4.84;90.22;94767.72;4357877;32;20193;-57
2022/04/09 07:24:47;;;;;;;13.70;4.93;;;;;;;5.66;95.47;94772.44;4361610;32;20291;-56
2022/04/09 07:27:12;;;;;;;7.20;4.77;;;;;;;6.59;96.38;94769.47;4355732;32;20185;-57
2022/04/09 07:29:38;;;;;;;3.63;3.43;;;;;;;6.73;90.62;94777.47;4361121;32;20232;-57
2022/04/09 07:32:03;;;;;;;4.07;3.73;;;;;;;7.01;85.80;94781.06;4348049;32;20196;-51
2022/04/09 07:34:29;;;;;;;4.20;3.37;;;;;;;7.33;81.23;94789.06;4363330;32;20206;-55
2022/04/09 07:36:54;;;;;;;5.23;3.50;;;;;;;7.04;83.78;94793.69;4348885;32;20216;-56
2022/04/09 07:39:19;;;;;;;4.07;3.73;;;;;;;7.02;83.23;94796.63;4352470;32;20260;-52
2022/04/09 07:41:45;;;;;;;4.43;3.63;;;;;;;7.33;85.87;94802.25;4358385;32;20200;-53
2022/04/09 07:44:10;;;;;;;5.03;3.63;;;;;;;7.54;85.48;94803.53;4340583;32;20215;-56
2022/04/09 07:46:35;;;;;;;12.27;4.97;;;;;;;7.66;84.55;94810.25;4346072;32;20181;-56
2022/04/09 07:49:01;;;;;;;5.17;3.83;;;;;;;7.51;83.47;94814.66;4355120;32;20207;-57
2022/04/09 07:51:26;;;;;;;3.50;3.30;;;;;;;7.49;80.91;94819.44;4368936;32;20219;-56
2022/04/09 07:53:51;;;;;;;4.70;4.30;;;;;;;6.78;75.23;94811.69;4361101;32;20192;-55
2022/04/09 07:56:17;;;;;;;4.70;4.30;;;;;;;6.13;78.12;94825.25;4348144;32;20201;-57
2022/04/09 07:58:43;;;;;;;4.47;3.97;;;;;;;5.68;79.55;94822.94;4366990;32;20193;-57
2022/04/09 08:01:11;;;;;;;4.50;4.10;;;;;;;5.56;79.71;94825.94;4357831;32;20261;-55
2022/04/09 08:03:36;;;;;;;5.57;5.10;;;;;;;5.60;80.40;94831.44;4348987;32;20341;-56
2022/04/09 08:06:04;;;;;;;4.87;4.57;;;;;;;5.43;80.94;94826.53;4351941;32;20339;-56
2022/04/09 08:08:33;;;;;;;5.70;5.40;;;;;;;5.52;80.53;94833.59;4354447;32;20201;-57
2022/04/09 08:10:59;;;;;;;5.67;5.27;;;;;;;5.47;81.32;94848.59;4351877;32;20392;-56
2022/04/09 08:13:24;;;;;;;6.10;5.50;;;;;;;5.31;80.87;94847.91;4339416;32;20180;-57
2022/04/09 08:15:50;;;;;;;6.47;6.03;;;;;;;5.37;80.51;94846.84;4367153;32;20325;-57
2022/04/09 08:18:15;;;;;;;7.10;6.40;;;;;;;5.18;80.61;94845.88;4352876;32;20288;-56
2022/04/09 08:20:41;;;;;;;6.73;6.13;;;;;;;5.29;80.54;94836.88;4367838;32;20181;-56
2022/04/09 08:23:06;;;;;;;6.90;6.37;;;;;;;5.50;78.68;94840.97;4361064;32;20195;-54
2022/04/09 08:25:32;;;;;;;6.90;6.20;;;;;;;5.45;79.38;94840.97;4361542;32;20180;-55
2022/04/09 08:27:57;;;;;;;5.70;5.27;;;;;;;5.72;76.80;94842.41;4351754;32;20204;-56
2022/04/09 08:30:23;;;;;;;6.70;6.20;;;;;;;5.72;76.07;94850.28;4359408;32;20194;-57
2022/04/09 08:32:50;;;;;;;6.83;6.40;;;;;;;5.88;76.76;94851.75;4360834;32;20220;-57
2022/04/09 08:35:16;;;;;;;6.40;5.80;;;;;;;5.83;75.71;94851.78;4360059;32;20302;-56
2022/04/09 08:37:42;;;;;;;6.00;5.40;;;;;;;5.73;75.77;94857.13;4360151;32;20307;-57
2022/04/09 08:40:14;;;;;;;5.90;5.30;;;;;;;5.73;74.38;94862.38;4361152;32;20300;-55
2022/04/09 08:42:39;;;;;;;6.73;6.17;;;;;;;5.57;75.49;94869.59;4361274;32;20263;-55
2022/04/09 08:45:05;;;;;;;6.10;5.60;;;;;;;5.75;76.14;94865.53;4349092;32;20265;-56
2022/04/09 08:47:33;;;;;;;6.07;5.57;;;;;;;5.86;74.19;94867.03;4360309;32;20181;-58
2022/04/09 08:49:59;;;;;;;6.40;5.90;;;;;;;5.82;75.79;94866.78;4364852;32;20181;-53
2022/04/09 08:52:25;;;;;;;6.53;5.90;;;;;;;5.82;75.40;94871.25;4346955;32;20296;-56
2022/04/09 08:54:51;;;;;;;5.87;5.47;;;;;;;6.05;75.13;94873.22;4364423;32;20306;-56
2022/04/09 08:57:16;;;;;;;5.77;5.17;;;;;;;6.04;72.48;94866.38;4359350;32;20289;-57
2022/04/09 08:59:41;;;;;;;6.37;5.87;;;;;;;6.14;72.29;94868.94;4352825;32;20184;-52
2022/04/09 09:02:07;;;;;;;6.30;5.73;;;;;;;5.94;73.38;94865.69;4359930;32;20224;-55
2022/04/09 09:04:33;;;;;;;5.17;4.67;;;;;;;6.00;73.40;94872.50;4355440;32;20202;-55
2022/04/09 09:07:18;;;;;;;4.60;4.30;;;;;;;6.00;71.19;94868.03;4356606;32;20215;-57
2022/04/09 09:09:43;;;;;;;4.03;3.73;;;;;;;5.90;69.83;94872.56;4365966;32;20288;-56
2022/04/09 09:12:10;;;;;;;4.37;3.00;;;;;;;5.86;66.73;94874.91;4354405;32;20366;-55
2022/04/09 09:14:36;;;;;;;6.83;5.67;;;;;;;5.93;66.48;94888.59;4368635;32;20196;-56
2022/04/09 09:17:03;;;;;;;3.97;3.13;;;;;;;6.08;66.52;94877.16;4359549;32;20281;-56
2022/04/09 09:19:48;;;;;;;3.50;3.17;;;;;;;6.18;65.24;94877.88;4362079;32;20360;-54
2022/04/09 09:22:15;;;;;;;3.70;3.50;;;;;;;6.27;66.76;94882.53;4339623;32;20296;-56
2022/04/09 09:24:40;;;;;;;3.37;3.07;;;;;;;6.22;66.68;94887.88;4357568;32;20288;-54
2022/04/09 09:27:06;;;;;;;5.27;3.07;;;;;;;6.39;65.41;94893.50;4346434;32;20321;-55
2022/04/09 09:29:33;;;;;;;3.27;2.70;;;;;;;6.26;65.32;94891.50;4359039;32;20223;-55
2022/04/09 09:32:04;;;;;;;3.53;2.73;;;;;;;6.49;65.49;94896.03;4360345;32;20348;-57
2022/04/09 09:34:35;;;;;;;4.30;3.40;;;;;;;6.32;62.88;94903.56;4327047;32;20285;-58
2022/04/09 09:37:03;;;;;;;2.60;2.40;;;;;;;6.17;63.81;94900.00;4332531;32;20313;-54
2022/04/09 09:39:33;;;;;;;2.70;2.60;;;;;;;6.26;63.93;94904.66;4315770;33;20301;-56
2022/04/09 09:42:04;;;;;;;4.00;3.13;;;;;;;6.37;64.22;94898.25;4320461;33;20285;-55
2022/04/09 09:44:46;;;;;;;2.60;2.30;;;;;;;6.58;64.00;94898.84;4295653;33;20302;-57
2022/04/09 09:47:15;;;;;;;2.57;2.37;;;;;;;6.77;61.90;94908.41;4316136;32;20282;-57
2022/04/09 09:49:59;;;;;;;2.77;2.60;;;;;;;6.73;60.71;94907.41;4317019;33;20299;-56
2022/04/09 09:52:39;;;;;;;2.60;2.50;;;;;;;6.82;60.22;94911.00;4311805;33;20286;-54
2022/04/09 09:55:16;;;;;;;3.13;2.57;;;;;;;6.72;60.02;94905.81;4248612;33;20347;-54
2022/04/09 09:57:43;;;;;;;3.27;2.97;;;;;;;6.82;60.95;94916.28;4339534;33;20308;-53
2022/04/09 10:00:11;;;;;;;2.30;2.07;;;;;;;6.84;59.48;94908.09;4302333;33;20284;-54
2022/04/09 10:02:40;;;;;;;2.40;2.27;;;;;;;7.04;60.10;94907.09;4305845;33;20285;-55
2022/04/09 10:05:07;;;;;;;2.17;2.07;;;;;;;7.01;58.85;94910.28;4318842;33;20305;-56
2022/04/09 10:07:39;;;;;;;2.67;1.77;;;;;;;6.76;59.23;94912.13;4304621;33;20303;-57
2022/04/09 10:10:06;;;;;;;1.97;1.87;;;;;;;6.84;60.42;94919.44;4325399;32;20286;-55
2022/04/09 10:12:40;;;;;;;3.00;2.40;;;;;;;6.90;59.11;94928.06;4311514;33;20302;-58
2022/04/09 10:15:08;;;;;;;3.63;3.23;;;;;;;6.63;58.84;94943.62;4321798;32;20312;-57
2022/04/09 10:17:35;;;;;;;4.30;2.03;;;;;;;6.56;61.02;94941.31;4317370;33;20282;-56
2022/04/09 10:20:02;;;;;;;2.27;2.10;;;;;;;6.54;58.35;94935.50;4334181;32;20290;-55
2022/04/09 10:22:31;;;;;;;2.10;1.90;;;;;;;6.59;60.11;94938.13;4285636;33;20297;-56
2022/04/09 10:25:00;;;;;;;2.33;1.80;;;;;;;6.75;59.32;94931.63;4313316;33;20285;-56
2022/04/09 10:27:40;;;;;;;2.40;1.90;;;;;;;6.50;60.11;94929.22;4273367;33;20333;-55
2022/04/09 10:30:28;;;;;;;2.20;2.00;;;;;;;6.73;59.23;94932.97;4323014;32;20335;-55
2022/04/09 10:32:57;;;;;;;2.00;1.90;;;;;;;6.65;58.33;94930.97;4330240;32;20372;-52
2022/04/09 10:35:29;;;;;;;2.23;2.03;;;;;;;6.58;59.50;94935.75;4328433;32;20419;-55
2022/04/09 10:38:16;;;;;;;1.83;1.73;;;;;;;6.68;58.25;94936.44;4307514;32;20297;-54
2022/04/09 10:40:55;;;;;;;2.13;1.93;;;;;;;6.65;57.67;94931.72;4331799;32;20330;-57
2022/04/09 10:43:27;;;;;;;1.80;1.57;;;;;;;6.71;58.02;94919.28;4311323;32;20418;-56
2022/04/09 10:46:21;;;;;;;1.90;1.80;;;;;;;6.70;57.51;94934.31;4315402;32;20345;-54
2022/04/09 10:48:49;;;;;;;2.00;1.90;;;;;;;6.65;58.57;94931.72;4333189;32;20300;-53
2022/04/09 10:51:18;;;;;;;3.07;1.87;;;;;;;6.63;57.52;94939.13;4358974;32;20277;-57
2022/04/09 10:53:48;;;;;;;2.00;1.90;;;;;;;6.60;59.69;94942.31;4350088;32;20375;-56
2022/04/09 10:56:42;;;;;;;2.10;2.00;;;;;;;6.82;59.62;94940.00;4326769;32;20285;-54
2022/04/09 10:59:20;;;;;;;2.30;2.10;;;;;;;7.04;59.12;94938.75;4327191;32;20300;-55
2022/04/09 11:01:59;;;;;;;2.50;2.10;;;;;;;6.93;59.92;94943.31;4334971;32;20335;-56
2022/04/09 11:04:38;;;;;;;2.43;2.17;;;;;;;7.03;58.50;94942.44;4357729;32;20291;-54
2022/04/09 11:07:27;;;;;;;1.90;1.80;;;;;;;7.03;58.80;94943.22;4299547;32;20313;-52
2022/04/09 11:10:06;;;;;;;1.90;1.80;;;;;;;7.07;57.56;94938.94;4338183;32;20396;-55
2022/04/09 11:12:43;;;;;;;2.47;1.90;;;;;;;6.97;58.31;94930.38;4315571;32;20298;-56
2022/04/09 11:15:15;;;;;;;1.77;1.67;;;;;;;7.18;56.92;94924.59;4314007;32;20296;-57
2022/04/09 11:17:46;;;;;;;3.27;2.30;;;;;;;7.34;56.87;94935.75;4342965;32;20276;-57
2022/04/09 11:20:23;;;;;;;1.80;1.70;;;;;;;7.54;56.93;94935.50;4346313;32;20351;-57
2022/04/09 11:22:54;;;;;;;2.03;1.70;;;;;;;7.56;55.92;94929.94;4353342;32;20342;-56
2022/04/09 11:25:30;;;;;;;1.80;1.70;;;;;;;7.81;54.48;94942.81;4329702;32;20382;-57
2022/04/09 11:28:19;;;;;;;2.83;1.70;;;;;;;7.66;55.39;94950.94;4334630;32;20300;-57
2022/04/09 11:31:19;;;;;;;2.70;1.60;;;;;;;7.56;55.14;94948.41;4292053;32;20285;-56
2022/04/09 11:33:57;;;;;;;2.07;1.70;;;;;;;7.36;56.59;94949.44;4314488;32;20303;-55
2022/04/09 11:36:30;;;;;;;2.10;1.70;;;;;;;7.33;55.64;94939.44;4320929;32;20288;-58
2022/04/09 11:38:58;;;;;;;1.67;1.40;;;;;;;7.38;54.84;94926.19;4325400;32;20326;-54
2022/04/09 11:41:26;;;;;;;4.13;1.83;;;;;;;7.53;54.52;94931.28;4319039;32;20290;-55
2022/04/09 11:43:54;;;;;;;2.63;1.87;;;;;;;7.41;51.59;94930.91;4350777;32;20278;-57
2022/04/09 11:46:22;;;;;;;4.57;1.90;;;;;;;7.48;52.61;94933.22;4327635;32;20325;-57
2022/04/09 11:48:59;;;;;;;2.50;1.80;;;;;;;7.20;52.40;94938.28;4328700;32;20289;-55